sensor_id;sensor_type;location;lat;lon;timestamp;P1;durP1;ratioP1;P2;durP2;ratioP2
21601;SDS011;10963;50.934;4.668;2023-04-28T00:01:29;25.57;;;15.47;;
21601;SDS011;10963;50.934;4.668;2023-04-28T00:03:55;28.53;;;16.50;;
21601;SDS011;10963;50.934;4.668;2023-04-28T00:06:22;36.37;;;17.27;;
21601;SDS011;10963;50.934;4.668;2023-04-28T00:08:48;31.87;;;16.90;;
21601;SDS011;10963;50.934;4.668;2023-04-28T00:11:16;31.73;;;17.27;;
21601;SDS011;10963;50.934;4.668;2023-04-28T00:13:41;28.60;;;16.23;;
21601;SDS011;10963;50.934;4.668;2023-04-28T00:16:07;32.30;;;16.50;;
21601;SDS011;10963;50.934;4.668;2023-04-28T00:18:35;28.43;;;16.73;;
21601;SDS011;10963;50.934;4.668;2023-04-28T00:21:03;32.00;;;17.50;;
21601;SDS011;10963;50.934;4.668;2023-04-28T00:23:29;31.70;;;17.73;;
21601;SDS011;10963;50.934;4.668;2023-04-28T00:25:57;30.33;;;17.23;;
21601;SDS011;10963;50.934;4.668;2023-04-28T00:28:22;32.87;;;18.70;;
21601;SDS011;10963;50.934;4.668;2023-04-28T00:30:48;30.73;;;18.10;;
21601;SDS011;10963;50.934;4.668;2023-04-28T00:33:16;40.10;;;19.07;;
21601;SDS011;10963;50.934;4.668;2023-04-28T00:35:44;30.67;;;18.40;;
21601;SDS011;10963;50.934;4.668;2023-04-28T00:38:10;38.63;;;18.83;;
21601;SDS011;10963;50.934;4.668;2023-04-28T00:40:36;33.93;;;17.70;;
21601;SDS011;10963;50.934;4.668;2023-04-28T00:43:03;35.60;;;19.77;;
21601;SDS011;10963;50.934;4.668;2023-04-28T00:45:31;37.47;;;18.67;;
21601;SDS011;10963;50.934;4.668;2023-04-28T00:47:57;31.50;;;18.33;;
21601;SDS011;10963;50.934;4.668;2023-04-28T00:50:26;37.20;;;19.67;;
21601;SDS011;10963;50.934;4.668;2023-04-28T00:52:55;35.87;;;21.50;;
21601;SDS011;10963;50.934;4.668;2023-04-28T00:55:21;36.50;;;20.07;;
21601;SDS011;10963;50.934;4.668;2023-04-28T00:57:48;35.50;;;20.00;;
21601;SDS011;10963;50.934;4.668;2023-04-28T01:00:15;36.73;;;20.43;;
21601;SDS011;10963;50.934;4.668;2023-04-28T01:02:44;37.70;;;20.50;;
21601;SDS011;10963;50.934;4.668;2023-04-28T01:05:12;35.43;;;19.07;;
21601;SDS011;10963;50.934;4.668;2023-04-28T01:07:39;38.73;;;20.40;;
21601;SDS011;10963;50.934;4.668;2023-04-28T01:10:07;37.93;;;20.00;;
21601;SDS011;10963;50.934;4.668;2023-04-28T01:12:33;38.43;;;20.70;;
21601;SDS011;10963;50.934;4.668;2023-04-28T01:14:58;34.53;;;20.30;;
21601;SDS011;10963;50.934;4.668;2023-04-28T01:17:26;40.10;;;21.47;;
21601;SDS011;10963;50.934;4.668;2023-04-28T01:19:54;37.50;;;21.67;;
21601;SDS011;10963;50.934;4.668;2023-04-28T01:22:22;35.83;;;20.70;;
21601;SDS011;10963;50.934;4.668;2023-04-28T01:24:48;43.00;;;20.57;;
21601;SDS011;10963;50.934;4.668;2023-04-28T01:27:16;43.03;;;21.13;;
21601;SDS011;10963;50.934;4.668;2023-04-28T01:29:44;37.20;;;20.70;;
21601;SDS011;10963;50.934;4.668;2023-04-28T01:32:10;38.03;;;22.07;;
21601;SDS011;10963;50.934;4.668;2023-04-28T01:34:36;46.70;;;21.10;;
21601;SDS011;10963;50.934;4.668;2023-04-28T01:37:06;37.87;;;19.87;;
21601;SDS011;10963;50.934;4.668;2023-04-28T01:39:32;35.43;;;20.10;;
21601;SDS011;10963;50.934;4.668;2023-04-28T01:42:01;31.60;;;18.13;;
21601;SDS011;10963;50.934;4.668;2023-04-28T01:44:29;37.90;;;19.10;;
21601;SDS011;10963;50.934;4.668;2023-04-28T01:46:55;34.17;;;18.37;;
21601;SDS011;10963;50.934;4.668;2023-04-28T01:49:23;32.57;;;18.43;;
21601;SDS011;10963;50.934;4.668;2023-04-28T01:51:49;30.13;;;17.77;;
21601;SDS011;10963;50.934;4.668;2023-04-28T01:54:17;37.17;;;17.60;;
21601;SDS011;10963;50.934;4.668;2023-04-28T01:56:42;33.43;;;18.47;;
21601;SDS011;10963;50.934;4.668;2023-04-28T01:59:08;28.87;;;16.57;;
21601;SDS011;10963;50.934;4.668;2023-04-28T02:01:34;33.20;;;16.67;;
21601;SDS011;10963;50.934;4.668;2023-04-28T02:04:00;33.93;;;16.30;;
21601;SDS011;10963;50.934;4.668;2023-04-28T02:06:25;31.60;;;17.73;;
21601;SDS011;10963;50.934;4.668;2023-04-28T02:08:52;31.10;;;16.30;;
21601;SDS011;10963;50.934;4.668;2023-04-28T02:11:20;29.87;;;15.90;;
21601;SDS011;10963;50.934;4.668;2023-04-28T02:13:45;33.63;;;16.67;;
21601;SDS011;10963;50.934;4.668;2023-04-28T02:16:14;38.17;;;18.17;;
21601;SDS011;10963;50.934;4.668;2023-04-28T02:18:42;33.43;;;18.00;;
21601;SDS011;10963;50.934;4.668;2023-04-28T02:21:08;37.00;;;17.60;;
21601;SDS011;10963;50.934;4.668;2023-04-28T02:23:40;34.30;;;18.63;;
21601;SDS011;10963;50.934;4.668;2023-04-28T02:26:08;31.60;;;18.87;;
21601;SDS011;10963;50.934;4.668;2023-04-28T02:28:33;35.87;;;19.27;;
21601;SDS011;10963;50.934;4.668;2023-04-28T02:31:03;34.47;;;19.00;;
21601;SDS011;10963;50.934;4.668;2023-04-28T02:33:31;42.93;;;19.13;;
21601;SDS011;10963;50.934;4.668;2023-04-28T02:35:59;36.37;;;18.90;;
21601;SDS011;10963;50.934;4.668;2023-04-28T02:38:28;40.70;;;20.10;;
21601;SDS011;10963;50.934;4.668;2023-04-28T02:41:00;37.30;;;19.43;;
21601;SDS011;10963;50.934;4.668;2023-04-28T02:43:28;42.40;;;19.57;;
21601;SDS011;10963;50.934;4.668;2023-04-28T02:45:55;38.10;;;18.17;;
21601;SDS011;10963;50.934;4.668;2023-04-28T02:48:22;38.50;;;20.00;;
21601;SDS011;10963;50.934;4.668;2023-04-28T02:50:48;42.03;;;20.20;;
21601;SDS011;10963;50.934;4.668;2023-04-28T02:53:14;38.47;;;18.40;;
21601;SDS011;10963;50.934;4.668;2023-04-28T02:55:42;34.10;;;18.27;;
21601;SDS011;10963;50.934;4.668;2023-04-28T02:58:11;36.27;;;17.17;;
21601;SDS011;10963;50.934;4.668;2023-04-28T03:00:40;36.70;;;17.87;;
21601;SDS011;10963;50.934;4.668;2023-04-28T03:03:08;40.10;;;17.93;;
21601;SDS011;10963;50.934;4.668;2023-04-28T03:05:36;36.97;;;18.90;;
21601;SDS011;10963;50.934;4.668;2023-04-28T03:08:01;32.13;;;15.63;;
21601;SDS011;10963;50.934;4.668;2023-04-28T03:10:27;30.90;;;16.20;;
21601;SDS011;10963;50.934;4.668;2023-04-28T03:12:53;30.43;;;16.10;;
21601;SDS011;10963;50.934;4.668;2023-04-28T03:15:19;38.37;;;16.47;;
21601;SDS011;10963;50.934;4.668;2023-04-28T03:17:44;34.90;;;17.37;;
21601;SDS011;10963;50.934;4.668;2023-04-28T03:20:10;33.30;;;17.53;;
21601;SDS011;10963;50.934;4.668;2023-04-28T03:22:36;32.80;;;16.70;;
21601;SDS011;10963;50.934;4.668;2023-04-28T03:25:03;31.53;;;16.97;;
21601;SDS011;10963;50.934;4.668;2023-04-28T03:27:31;31.13;;;17.43;;
21601;SDS011;10963;50.934;4.668;2023-04-28T03:29:59;30.53;;;16.20;;
21601;SDS011;10963;50.934;4.668;2023-04-28T03:32:25;28.93;;;16.43;;
21601;SDS011;10963;50.934;4.668;2023-04-28T03:34:53;32.83;;;16.87;;
21601;SDS011;10963;50.934;4.668;2023-04-28T03:37:18;34.67;;;16.87;;
21601;SDS011;10963;50.934;4.668;2023-04-28T03:39:49;31.10;;;16.37;;
21601;SDS011;10963;50.934;4.668;2023-04-28T03:42:17;32.37;;;16.70;;
21601;SDS011;10963;50.934;4.668;2023-04-28T03:44:45;31.53;;;17.63;;
21601;SDS011;10963;50.934;4.668;2023-04-28T03:47:11;34.57;;;18.20;;
21601;SDS011;10963;50.934;4.668;2023-04-28T03:49:40;29.83;;;16.63;;
21601;SDS011;10963;50.934;4.668;2023-04-28T03:52:07;31.47;;;16.40;;
21601;SDS011;10963;50.934;4.668;2023-04-28T03:54:33;31.40;;;16.47;;
21601;SDS011;10963;50.934;4.668;2023-04-28T03:56:59;35.10;;;18.07;;
21601;SDS011;10963;50.934;4.668;2023-04-28T03:59:28;35.90;;;18.10;;
21601;SDS011;10963;50.934;4.668;2023-04-28T04:01:54;38.87;;;18.50;;
21601;SDS011;10963;50.934;4.668;2023-04-28T04:04:22;36.47;;;17.60;;
21601;SDS011;10963;50.934;4.668;2023-04-28T04:06:50;34.73;;;18.73;;
21601;SDS011;10963;50.934;4.668;2023-04-28T04:09:16;36.03;;;18.60;;
21601;SDS011;10963;50.934;4.668;2023-04-28T04:11:47;37.80;;;18.07;;
21601;SDS011;10963;50.934;4.668;2023-04-28T04:14:12;42.40;;;20.17;;
21601;SDS011;10963;50.934;4.668;2023-04-28T04:16:46;40.53;;;19.70;;
21601;SDS011;10963;50.934;4.668;2023-04-28T04:19:14;36.47;;;18.73;;
21601;SDS011;10963;50.934;4.668;2023-04-28T04:21:40;35.07;;;18.27;;
21601;SDS011;10963;50.934;4.668;2023-04-28T04:24:06;38.23;;;18.90;;
21601;SDS011;10963;50.934;4.668;2023-04-28T04:26:36;37.30;;;20.03;;
21601;SDS011;10963;50.934;4.668;2023-04-28T04:29:04;39.30;;;20.20;;
21601;SDS011;10963;50.934;4.668;2023-04-28T04:31:30;34.03;;;18.07;;
21601;SDS011;10963;50.934;4.668;2023-04-28T04:34:00;38.83;;;20.20;;
21601;SDS011;10963;50.934;4.668;2023-04-28T04:36:26;36.97;;;19.27;;
21601;SDS011;10963;50.934;4.668;2023-04-28T04:38:52;36.00;;;18.83;;
21601;SDS011;10963;50.934;4.668;2023-04-28T04:41:25;37.57;;;20.13;;
21601;SDS011;10963;50.934;4.668;2023-04-28T04:43:51;36.47;;;18.33;;
21601;SDS011;10963;50.934;4.668;2023-04-28T04:46:16;37.97;;;19.60;;
21601;SDS011;10963;50.934;4.668;2023-04-28T04:48:44;41.70;;;20.67;;
21601;SDS011;10963;50.934;4.668;2023-04-28T04:51:11;39.33;;;18.50;;
21601;SDS011;10963;50.934;4.668;2023-04-28T04:53:38;42.90;;;20.87;;
21601;SDS011;10963;50.934;4.668;2023-04-28T04:56:04;44.37;;;21.50;;
21601;SDS011;10963;50.934;4.668;2023-04-28T04:58:30;37.87;;;19.97;;
21601;SDS011;10963;50.934;4.668;2023-04-28T05:00:56;38.37;;;19.73;;
21601;SDS011;10963;50.934;4.668;2023-04-28T05:03:22;44.40;;;21.17;;
21601;SDS011;10963;50.934;4.668;2023-04-28T05:05:48;39.67;;;18.97;;
21601;SDS011;10963;50.934;4.668;2023-04-28T05:08:16;37.40;;;18.93;;
21601;SDS011;10963;50.934;4.668;2023-04-28T05:10:41;44.70;;;19.83;;
21601;SDS011;10963;50.934;4.668;2023-04-28T05:13:07;41.00;;;20.80;;
21601;SDS011;10963;50.934;4.668;2023-04-28T05:15:32;40.93;;;20.37;;
21601;SDS011;10963;50.934;4.668;2023-04-28T05:17:58;36.90;;;19.70;;
21601;SDS011;10963;50.934;4.668;2023-04-28T05:20:24;40.53;;;20.93;;
21601;SDS011;10963;50.934;4.668;2023-04-28T05:22:50;47.50;;;21.13;;
21601;SDS011;10963;50.934;4.668;2023-04-28T05:25:16;45.50;;;20.90;;
21601;SDS011;10963;50.934;4.668;2023-04-28T05:27:47;37.27;;;19.17;;
21601;SDS011;10963;50.934;4.668;2023-04-28T05:30:13;35.53;;;19.87;;
21601;SDS011;10963;50.934;4.668;2023-04-28T05:32:39;36.77;;;20.30;;
21601;SDS011;10963;50.934;4.668;2023-04-28T05:35:07;39.23;;;19.90;;
21601;SDS011;10963;50.934;4.668;2023-04-28T05:37:33;43.27;;;21.03;;
21601;SDS011;10963;50.934;4.668;2023-04-28T05:40:01;40.27;;;20.47;;
21601;SDS011;10963;50.934;4.668;2023-04-28T05:42:27;40.83;;;21.00;;
21601;SDS011;10963;50.934;4.668;2023-04-28T05:44:53;38.10;;;19.37;;
21601;SDS011;10963;50.934;4.668;2023-04-28T05:47:21;40.67;;;20.73;;
21601;SDS011;10963;50.934;4.668;2023-04-28T05:49:46;37.73;;;20.53;;
21601;SDS011;10963;50.934;4.668;2023-04-28T05:52:17;39.77;;;20.07;;
21601;SDS011;10963;50.934;4.668;2023-04-28T05:54:47;39.13;;;21.90;;
21601;SDS011;10963;50.934;4.668;2023-04-28T05:57:13;37.60;;;21.13;;
21601;SDS011;10963;50.934;4.668;2023-04-28T05:59:41;37.43;;;21.40;;
21601;SDS011;10963;50.934;4.668;2023-04-28T06:02:07;38.90;;;22.30;;
21601;SDS011;10963;50.934;4.668;2023-04-28T06:04:33;40.90;;;21.77;;
21601;SDS011;10963;50.934;4.668;2023-04-28T06:06:59;37.83;;;20.13;;
21601;SDS011;10963;50.934;4.668;2023-04-28T06:09:27;38.00;;;21.37;;
21601;SDS011;10963;50.934;4.668;2023-04-28T06:11:55;35.40;;;20.67;;
21601;SDS011;10963;50.934;4.668;2023-04-28T06:14:23;36.00;;;20.33;;
21601;SDS011;10963;50.934;4.668;2023-04-28T06:16:51;37.13;;;19.47;;
21601;SDS011;10963;50.934;4.668;2023-04-28T06:19:16;40.20;;;20.57;;
21601;SDS011;10963;50.934;4.668;2023-04-28T06:21:48;41.13;;;20.33;;
21601;SDS011;10963;50.934;4.668;2023-04-28T06:24:17;34.77;;;18.90;;
21601;SDS011;10963;50.934;4.668;2023-04-28T06:26:45;34.83;;;20.00;;
21601;SDS011;10963;50.934;4.668;2023-04-28T06:29:10;35.33;;;18.40;;
21601;SDS011;10963;50.934;4.668;2023-04-28T06:31:36;32.80;;;19.60;;
21601;SDS011;10963;50.934;4.668;2023-04-28T06:34:02;39.43;;;20.30;;
21601;SDS011;10963;50.934;4.668;2023-04-28T06:36:30;33.33;;;18.13;;
21601;SDS011;10963;50.934;4.668;2023-04-28T06:38:57;35.30;;;19.37;;
21601;SDS011;10963;50.934;4.668;2023-04-28T06:41:23;33.73;;;19.60;;
21601;SDS011;10963;50.934;4.668;2023-04-28T06:43:49;36.67;;;19.50;;
21601;SDS011;10963;50.934;4.668;2023-04-28T06:46:15;35.27;;;19.37;;
21601;SDS011;10963;50.934;4.668;2023-04-28T06:48:41;37.70;;;19.23;;
21601;SDS011;10963;50.934;4.668;2023-04-28T06:51:07;35.33;;;19.13;;
21601;SDS011;10963;50.934;4.668;2023-04-28T06:53:32;32.77;;;18.60;;
21601;SDS011;10963;50.934;4.668;2023-04-28T06:55:58;32.83;;;18.13;;
21601;SDS011;10963;50.934;4.668;2023-04-28T06:58:24;35.63;;;18.47;;
21601;SDS011;10963;50.934;4.668;2023-04-28T07:00:50;31.73;;;17.37;;
21601;SDS011;10963;50.934;4.668;2023-04-28T07:03:16;31.93;;;16.63;;
21601;SDS011;10963;50.934;4.668;2023-04-28T07:05:41;32.33;;;16.53;;
21601;SDS011;10963;50.934;4.668;2023-04-28T07:08:12;28.70;;;15.33;;
21601;SDS011;10963;50.934;4.668;2023-04-28T07:10:38;28.17;;;15.70;;
21601;SDS011;10963;50.934;4.668;2023-04-28T07:13:03;26.83;;;14.90;;
21601;SDS011;10963;50.934;4.668;2023-04-28T07:15:29;25.93;;;14.00;;
21601;SDS011;10963;50.934;4.668;2023-04-28T07:17:55;24.57;;;13.83;;
21601;SDS011;10963;50.934;4.668;2023-04-28T07:20:23;20.10;;;12.30;;
21601;SDS011;10963;50.934;4.668;2023-04-28T07:22:49;23.27;;;12.13;;
21601;SDS011;10963;50.934;4.668;2023-04-28T07:25:19;16.90;;;10.77;;
21601;SDS011;10963;50.934;4.668;2023-04-28T07:27:47;12.77;;;8.40;;
21601;SDS011;10963;50.934;4.668;2023-04-28T07:30:16;13.03;;;8.10;;
21601;SDS011;10963;50.934;4.668;2023-04-28T07:32:42;10.17;;;6.70;;
21601;SDS011;10963;50.934;4.668;2023-04-28T07:35:08;8.53;;;5.10;;
21601;SDS011;10963;50.934;4.668;2023-04-28T07:37:38;7.13;;;5.20;;
21601;SDS011;10963;50.934;4.668;2023-04-28T07:40:04;7.67;;;4.53;;
21601;SDS011;10963;50.934;4.668;2023-04-28T07:42:33;6.27;;;4.40;;
21601;SDS011;10963;50.934;4.668;2023-04-28T07:44:59;7.83;;;5.30;;
21601;SDS011;10963;50.934;4.668;2023-04-28T07:47:24;5.23;;;3.90;;
21601;SDS011;10963;50.934;4.668;2023-04-28T07:49:53;4.93;;;3.50;;
21601;SDS011;10963;50.934;4.668;2023-04-28T07:52:20;5.40;;;4.33;;
21601;SDS011;10963;50.934;4.668;2023-04-28T07:54:48;5.00;;;3.63;;
21601;SDS011;10963;50.934;4.668;2023-04-28T07:57:13;4.30;;;3.57;;
21601;SDS011;10963;50.934;4.668;2023-04-28T07:59:39;3.77;;;3.30;;
21601;SDS011;10963;50.934;4.668;2023-04-28T08:02:09;5.03;;;3.63;;
21601;SDS011;10963;50.934;4.668;2023-04-28T08:04:38;4.90;;;3.77;;
21601;SDS011;10963;50.934;4.668;2023-04-28T08:07:09;3.30;;;2.70;;
21601;SDS011;10963;50.934;4.668;2023-04-28T08:09:35;3.83;;;3.20;;
21601;SDS011;10963;50.934;4.668;2023-04-28T08:12:04;6.90;;;2.60;;
21601;SDS011;10963;50.934;4.668;2023-04-28T08:14:30;5.13;;;2.67;;
21601;SDS011;10963;50.934;4.668;2023-04-28T08:16:56;3.50;;;2.27;;
21601;SDS011;10963;50.934;4.668;2023-04-28T08:19:24;2.23;;;1.80;;
21601;SDS011;10963;50.934;4.668;2023-04-28T08:21:50;2.80;;;2.17;;
21601;SDS011;10963;50.934;4.668;2023-04-28T08:24:15;2.07;;;1.87;;
21601;SDS011;10963;50.934;4.668;2023-04-28T08:26:41;2.33;;;2.10;;
21601;SDS011;10963;50.934;4.668;2023-04-28T08:29:07;2.07;;;1.87;;
21601;SDS011;10963;50.934;4.668;2023-04-28T08:31:32;1.70;;;1.60;;
21601;SDS011;10963;50.934;4.668;2023-04-28T08:33:58;2.33;;;1.63;;
21601;SDS011;10963;50.934;4.668;2023-04-28T08:36:29;2.30;;;2.10;;
21601;SDS011;10963;50.934;4.668;2023-04-28T08:38:56;3.20;;;1.80;;
21601;SDS011;10963;50.934;4.668;2023-04-28T08:41:27;2.03;;;1.70;;
21601;SDS011;10963;50.934;4.668;2023-04-28T08:43:57;2.20;;;1.87;;
21601;SDS011;10963;50.934;4.668;2023-04-28T08:46:22;2.00;;;1.80;;
21601;SDS011;10963;50.934;4.668;2023-04-28T08:48:54;1.93;;;1.80;;
21601;SDS011;10963;50.934;4.668;2023-04-28T08:51:32;2.20;;;1.80;;
21601;SDS011;10963;50.934;4.668;2023-04-28T08:54:01;2.07;;;1.87;;
21601;SDS011;10963;50.934;4.668;2023-04-28T08:56:31;1.93;;;1.60;;
21601;SDS011;10963;50.934;4.668;2023-04-28T08:59:01;2.13;;;1.50;;
21601;SDS011;10963;50.934;4.668;2023-04-28T09:01:33;1.53;;;1.30;;
21601;SDS011;10963;50.934;4.668;2023-04-28T09:04:02;1.70;;;1.30;;
21601;SDS011;10963;50.934;4.668;2023-04-28T09:06:31;1.30;;;1.20;;
21601;SDS011;10963;50.934;4.668;2023-04-28T09:11:51;1.70;;;1.20;;
21601;SDS011;10963;50.934;4.668;2023-04-28T09:14:23;1.43;;;1.33;;
21601;SDS011;10963;50.934;4.668;2023-04-28T09:16:51;1.37;;;1.10;;
21601;SDS011;10963;50.934;4.668;2023-04-28T09:19:17;1.63;;;1.13;;
21601;SDS011;10963;50.934;4.668;2023-04-28T09:27:01;1.07;;;0.97;;
21601;SDS011;10963;50.934;4.668;2023-04-28T09:29:28;1.03;;;0.73;;
21601;SDS011;10963;50.934;4.668;2023-04-28T09:32:14;0.80;;;0.80;;
21601;SDS011;10963;50.934;4.668;2023-04-28T09:34:43;0.70;;;0.70;;
21601;SDS011;10963;50.934;4.668;2023-04-28T09:37:21;1.10;;;0.70;;
21601;SDS011;10963;50.934;4.668;2023-04-28T09:39:51;0.60;;;0.60;;
21601;SDS011;10963;50.934;4.668;2023-04-28T09:42:31;0.70;;;0.70;;
21601;SDS011;10963;50.934;4.668;2023-04-28T09:47:33;0.67;;;0.67;;
21601;SDS011;10963;50.934;4.668;2023-04-28T09:50:05;0.70;;;0.70;;
21601;SDS011;10963;50.934;4.668;2023-04-28T09:52:35;0.50;;;0.50;;
21601;SDS011;10963;50.934;4.668;2023-04-28T09:55:07;0.57;;;0.57;;
21601;SDS011;10963;50.934;4.668;2023-04-28T09:57:36;0.70;;;0.70;;
21601;SDS011;10963;50.934;4.668;2023-04-28T10:00:03;0.77;;;0.70;;
21601;SDS011;10963;50.934;4.668;2023-04-28T10:02:30;0.53;;;0.53;;
21601;SDS011;10963;50.934;4.668;2023-04-28T10:05:01;0.70;;;0.70;;
21601;SDS011;10963;50.934;4.668;2023-04-28T10:07:35;1.23;;;0.90;;
21601;SDS011;10963;50.934;4.668;2023-04-28T10:10:01;1.40;;;1.30;;
21601;SDS011;10963;50.934;4.668;2023-04-28T10:12:28;2.10;;;1.57;;
21601;SDS011;10963;50.934;4.668;2023-04-28T10:14:53;1.80;;;1.60;;
21601;SDS011;10963;50.934;4.668;2023-04-28T10:17:20;2.23;;;1.77;;
21601;SDS011;10963;50.934;4.668;2023-04-28T10:19:47;4.07;;;1.80;;
21601;SDS011;10963;50.934;4.668;2023-04-28T10:27:46;4.83;;;3.00;;
21601;SDS011;10963;50.934;4.668;2023-04-28T10:30:15;4.50;;;3.53;;
21601;SDS011;10963;50.934;4.668;2023-04-28T10:32:42;5.97;;;3.47;;
21601;SDS011;10963;50.934;4.668;2023-04-28T10:43:08;4.53;;;2.53;;
21601;SDS011;10963;50.934;4.668;2023-04-28T10:48:20;2.33;;;1.90;;
21601;SDS011;10963;50.934;4.668;2023-04-28T10:56:07;2.20;;;1.20;;
21601;SDS011;10963;50.934;4.668;2023-04-28T10:58:35;1.93;;;0.90;;
21601;SDS011;10963;50.934;4.668;2023-04-28T11:17:00;1.57;;;1.33;;
21601;SDS011;10963;50.934;4.668;2023-04-28T11:22:01;0.87;;;0.87;;
21601;SDS011;10963;50.934;4.668;2023-04-28T11:24:28;0.83;;;0.83;;
21601;SDS011;10963;50.934;4.668;2023-04-28T11:26:58;0.80;;;0.80;;
21601;SDS011;10963;50.934;4.668;2023-04-28T11:29:33;1.57;;;1.47;;
21601;SDS011;10963;50.934;4.668;2023-04-28T11:32:02;2.40;;;1.80;;
21601;SDS011;10963;50.934;4.668;2023-04-28T11:34:34;2.00;;;1.80;;
21601;SDS011;10963;50.934;4.668;2023-04-28T11:37:03;1.83;;;1.47;;
21601;SDS011;10963;50.934;4.668;2023-04-28T11:39:32;1.47;;;1.37;;
21601;SDS011;10963;50.934;4.668;2023-04-28T11:42:02;1.63;;;1.40;;
21601;SDS011;10963;50.934;4.668;2023-04-28T11:44:41;1.10;;;1.10;;
21601;SDS011;10963;50.934;4.668;2023-04-28T11:47:13;1.47;;;1.37;;
21601;SDS011;10963;50.934;4.668;2023-04-28T11:49:52;1.70;;;1.33;;
21601;SDS011;10963;50.934;4.668;2023-04-28T11:52:19;1.50;;;1.40;;
21601;SDS011;10963;50.934;4.668;2023-04-28T11:54:51;1.63;;;1.53;;
21601;SDS011;10963;50.934;4.668;2023-04-28T11:57:23;1.10;;;1.10;;
21601;SDS011;10963;50.934;4.668;2023-04-28T11:59:51;1.60;;;1.50;;
21601;SDS011;10963;50.934;4.668;2023-04-28T12:02:26;1.60;;;1.30;;
21601;SDS011;10963;50.934;4.668;2023-04-28T12:05:03;1.63;;;1.20;;
21601;SDS011;10963;50.934;4.668;2023-04-28T12:07:38;2.00;;;1.10;;
21601;SDS011;10963;50.934;4.668;2023-04-28T12:10:10;1.87;;;1.20;;
21601;SDS011;10963;50.934;4.668;2023-04-28T12:12:43;1.57;;;1.17;;
21601;SDS011;10963;50.934;4.668;2023-04-28T12:15:11;1.30;;;1.20;;
21601;SDS011;10963;50.934;4.668;2023-04-28T12:17:40;1.30;;;1.20;;
21601;SDS011;10963;50.934;4.668;2023-04-28T12:20:10;1.53;;;1.30;;
21601;SDS011;10963;50.934;4.668;2023-04-28T12:25:11;1.50;;;1.40;;
21601;SDS011;10963;50.934;4.668;2023-04-28T12:27:57;2.10;;;1.90;;
21601;SDS011;10963;50.934;4.668;2023-04-28T12:30:32;2.00;;;1.80;;
21601;SDS011;10963;50.934;4.668;2023-04-28T12:33:02;1.77;;;1.67;;
21601;SDS011;10963;50.934;4.668;2023-04-28T12:35:28;1.30;;;1.10;;
21601;SDS011;10963;50.934;4.668;2023-04-28T12:37:54;1.33;;;1.23;;
21601;SDS011;10963;50.934;4.668;2023-04-28T12:40:22;1.93;;;1.70;;
21601;SDS011;10963;50.934;4.668;2023-04-28T12:42:48;1.60;;;1.50;;
21601;SDS011;10963;50.934;4.668;2023-04-28T12:45:14;1.70;;;1.60;;
21601;SDS011;10963;50.934;4.668;2023-04-28T12:47:42;1.43;;;1.33;;
21601;SDS011;10963;50.934;4.668;2023-04-28T12:50:11;1.50;;;1.40;;
21601;SDS011;10963;50.934;4.668;2023-04-28T12:52:36;2.57;;;1.17;;
21601;SDS011;10963;50.934;4.668;2023-04-28T12:55:03;1.57;;;1.20;;
21601;SDS011;10963;50.934;4.668;2023-04-28T12:57:31;1.67;;;1.57;;
21601;SDS011;10963;50.934;4.668;2023-04-28T12:59:57;1.97;;;1.47;;
21601;SDS011;10963;50.934;4.668;2023-04-28T13:02:23;1.40;;;1.20;;
21601;SDS011;10963;50.934;4.668;2023-04-28T13:04:48;1.27;;;1.20;;
21601;SDS011;10963;50.934;4.668;2023-04-28T13:07:15;1.90;;;1.80;;
21601;SDS011;10963;50.934;4.668;2023-04-28T13:09:42;1.57;;;1.47;;
21601;SDS011;10963;50.934;4.668;2023-04-28T13:12:08;1.97;;;1.50;;
21601;SDS011;10963;50.934;4.668;2023-04-28T13:14:36;2.80;;;1.60;;
21601;SDS011;10963;50.934;4.668;2023-04-28T13:17:04;2.97;;;1.60;;
21601;SDS011;10963;50.934;4.668;2023-04-28T13:19:33;1.73;;;1.63;;
21601;SDS011;10963;50.934;4.668;2023-04-28T13:21:58;1.93;;;1.83;;
21601;SDS011;10963;50.934;4.668;2023-04-28T13:24:24;1.70;;;1.60;;
21601;SDS011;10963;50.934;4.668;2023-04-28T13:26:50;2.00;;;1.70;;
21601;SDS011;10963;50.934;4.668;2023-04-28T13:29:16;1.40;;;1.30;;
21601;SDS011;10963;50.934;4.668;2023-04-28T13:31:43;2.60;;;1.67;;
21601;SDS011;10963;50.934;4.668;2023-04-28T13:34:08;1.57;;;1.47;;
21601;SDS011;10963;50.934;4.668;2023-04-28T13:36:39;2.50;;;1.57;;
21601;SDS011;10963;50.934;4.668;2023-04-28T13:39:08;1.57;;;1.47;;
21601;SDS011;10963;50.934;4.668;2023-04-28T13:41:38;1.50;;;1.40;;
21601;SDS011;10963;50.934;4.668;2023-04-28T13:44:04;2.10;;;1.43;;
21601;SDS011;10963;50.934;4.668;2023-04-28T13:46:30;1.80;;;1.70;;
21601;SDS011;10963;50.934;4.668;2023-04-28T13:48:55;2.17;;;1.87;;
21601;SDS011;10963;50.934;4.668;2023-04-28T13:51:21;2.87;;;1.57;;
21601;SDS011;10963;50.934;4.668;2023-04-28T13:53:47;1.57;;;1.47;;
21601;SDS011;10963;50.934;4.668;2023-04-28T13:56:13;1.67;;;1.57;;
21601;SDS011;10963;50.934;4.668;2023-04-28T13:58:39;1.87;;;1.67;;
21601;SDS011;10963;50.934;4.668;2023-04-28T14:01:05;1.57;;;1.47;;
21601;SDS011;10963;50.934;4.668;2023-04-28T14:03:32;1.60;;;1.50;;
21601;SDS011;10963;50.934;4.668;2023-04-28T14:06:04;1.80;;;1.70;;
21601;SDS011;10963;50.934;4.668;2023-04-28T14:08:30;1.60;;;1.50;;
21601;SDS011;10963;50.934;4.668;2023-04-28T14:10:59;1.47;;;1.37;;
21601;SDS011;10963;50.934;4.668;2023-04-28T14:13:25;2.23;;;1.70;;
21601;SDS011;10963;50.934;4.668;2023-04-28T14:15:51;2.07;;;1.87;;
21601;SDS011;10963;50.934;4.668;2023-04-28T14:18:20;1.80;;;1.70;;
21601;SDS011;10963;50.934;4.668;2023-04-28T14:20:46;2.00;;;1.67;;
21601;SDS011;10963;50.934;4.668;2023-04-28T14:23:13;3.03;;;1.70;;
21601;SDS011;10963;50.934;4.668;2023-04-28T14:25:41;1.70;;;1.60;;
21601;SDS011;10963;50.934;4.668;2023-04-28T14:28:07;2.40;;;1.97;;
21601;SDS011;10963;50.934;4.668;2023-04-28T14:30:33;1.90;;;1.80;;
21601;SDS011;10963;50.934;4.668;2023-04-28T14:32:58;3.73;;;1.90;;
21601;SDS011;10963;50.934;4.668;2023-04-28T14:35:25;2.10;;;2.00;;
21601;SDS011;10963;50.934;4.668;2023-04-28T14:37:51;2.23;;;1.90;;
21601;SDS011;10963;50.934;4.668;2023-04-28T14:40:20;2.13;;;1.80;;
21601;SDS011;10963;50.934;4.668;2023-04-28T14:42:46;2.27;;;1.83;;
21601;SDS011;10963;50.934;4.668;2023-04-28T14:45:13;1.93;;;1.80;;
21601;SDS011;10963;50.934;4.668;2023-04-28T14:47:39;8.57;;;1.90;;
21601;SDS011;10963;50.934;4.668;2023-04-28T14:50:06;2.17;;;1.90;;
21601;SDS011;10963;50.934;4.668;2023-04-28T14:52:32;1.83;;;1.60;;
21601;SDS011;10963;50.934;4.668;2023-04-28T14:54:58;2.60;;;1.63;;
21601;SDS011;10963;50.934;4.668;2023-04-28T14:57:27;2.10;;;1.90;;
21601;SDS011;10963;50.934;4.668;2023-04-28T14:59:53;1.93;;;1.53;;
21601;SDS011;10963;50.934;4.668;2023-04-28T15:02:21;3.17;;;2.30;;
21601;SDS011;10963;50.934;4.668;2023-04-28T15:04:56;2.13;;;1.87;;
21601;SDS011;10963;50.934;4.668;2023-04-28T15:07:24;1.70;;;1.60;;
21601;SDS011;10963;50.934;4.668;2023-04-28T15:09:55;1.70;;;1.60;;
21601;SDS011;10963;50.934;4.668;2023-04-28T15:12:25;2.73;;;1.47;;
21601;SDS011;10963;50.934;4.668;2023-04-28T15:14:58;2.17;;;1.50;;
21601;SDS011;10963;50.934;4.668;2023-04-28T15:17:24;1.60;;;1.50;;
21601;SDS011;10963;50.934;4.668;2023-04-28T15:19:52;1.50;;;1.40;;
21601;SDS011;10963;50.934;4.668;2023-04-28T15:22:21;3.17;;;1.73;;
21601;SDS011;10963;50.934;4.668;2023-04-28T15:24:46;1.50;;;1.40;;
21601;SDS011;10963;50.934;4.668;2023-04-28T15:27:12;3.53;;;1.80;;
21601;SDS011;10963;50.934;4.668;2023-04-28T15:29:38;1.70;;;1.60;;